sensor_id;sensor_type;location;lat;lon;timestamp;temperature;humidity
39983;DHT22;25670;44.782;10.356;2023-07-31T00:01:06;24.00;99.90
39983;DHT22;25670;44.782;10.356;2023-07-31T00:03:32;24.30;99.90
39983;DHT22;25670;44.782;10.356;2023-07-31T00:08:25;24.10;99.90
39983;DHT22;25670;44.782;10.356;2023-07-31T00:10:52;24.20;99.90
39983;DHT22;25670;44.782;10.356;2023-07-31T00:13:18;24.00;99.90
39983;DHT22;25670;44.782;10.356;2023-07-31T00:18:11;23.90;99.90
39983;DHT22;25670;44.782;10.356;2023-07-31T00:20:37;24.10;99.90
39983;DHT22;25670;44.782;10.356;2023-07-31T00:23:03;24.00;99.90
39983;DHT22;25670;44.782;10.356;2023-07-31T00:25:30;23.90;99.90
39983;DHT22;25670;44.782;10.356;2023-07-31T00:27:56;23.90;99.90
39983;DHT22;25670;44.782;10.356;2023-07-31T00:30:22;24.00;99.90
39983;DHT22;25670;44.782;10.356;2023-07-31T00:32:48;23.90;99.90
39983;DHT22;25670;44.782;10.356;2023-07-31T00:35:14;23.80;99.90
39983;DHT22;25670;44.782;10.356;2023-07-31T00:40:08;23.70;99.90
39983;DHT22;25670;44.782;10.356;2023-07-31T00:42:34;23.90;99.90
39983;DHT22;25670;44.782;10.356;2023-07-31T00:45:00;23.70;99.90
39983;DHT22;25670;44.782;10.356;2023-07-31T00:49:53;23.60;99.90
39983;DHT22;25670;44.782;10.356;2023-07-31T00:52:20;23.20;99.90
39983;DHT22;25670;44.782;10.356;2023-07-31T00:57:13;22.80;99.90
39983;DHT22;25670;44.782;10.356;2023-07-31T00:59:39;23.20;99.90
39983;DHT22;25670;44.782;10.356;2023-07-31T01:02:05;23.40;99.90
39983;DHT22;25670;44.782;10.356;2023-07-31T01:04:32;23.60;99.90
39983;DHT22;25670;44.782;10.356;2023-07-31T01:09:41;23.10;99.90
39983;DHT22;25670;44.782;10.356;2023-07-31T01:12:15;23.20;99.90
39983;DHT22;25670;44.782;10.356;2023-07-31T01:14:51;23.20;99.90
39983;DHT22;25670;44.782;10.356;2023-07-31T01:17:18;23.20;99.90
39983;DHT22;25670;44.782;10.356;2023-07-31T01:28:23;23.00;99.90
39983;DHT22;25670;44.782;10.356;2023-07-31T01:30:51;22.90;99.90
39983;DHT22;25670;44.782;10.356;2023-07-31T01:33:19;23.20;99.90
39983;DHT22;25670;44.782;10.356;2023-07-31T01:35:47;23.00;99.90
39983;DHT22;25670;44.782;10.356;2023-07-31T01:38:14;23.10;99.90
39983;DHT22;25670;44.782;10.356;2023-07-31T01:40:41;23.00;99.90
39983;DHT22;25670;44.782;10.356;2023-07-31T01:43:09;23.00;99.90
39983;DHT22;25670;44.782;10.356;2023-07-31T01:55:21;23.10;99.90
39983;DHT22;25670;44.782;10.356;2023-07-31T01:57:47;23.00;99.90
39983;DHT22;25670;44.782;10.356;2023-07-31T02:00:14;22.30;99.90
39983;DHT22;25670;44.782;10.356;2023-07-31T02:05:07;22.80;99.90
39983;DHT22;25670;44.782;10.356;2023-07-31T02:07:33;23.00;99.90
39983;DHT22;25670;44.782;10.356;2023-07-31T02:09:59;22.90;99.90
39983;DHT22;25670;44.782;10.356;2023-07-31T02:12:26;22.80;99.90
39983;DHT22;25670;44.782;10.356;2023-07-31T02:14:52;22.70;99.90
39983;DHT22;25670;44.782;10.356;2023-07-31T02:17:18;22.30;99.90
39983;DHT22;25670;44.782;10.356;2023-07-31T02:24:38;22.40;99.90
39983;DHT22;25670;44.782;10.356;2023-07-31T02:29:30;22.00;99.90
39983;DHT22;25670;44.782;10.356;2023-07-31T02:34:23;22.30;99.90
39983;DHT22;25670;44.782;10.356;2023-07-31T02:36:49;22.30;99.90
39983;DHT22;25670;44.782;10.356;2023-07-31T02:39:15;21.80;99.90
39983;DHT22;25670;44.782;10.356;2023-07-31T02:41:42;22.30;99.90
39983;DHT22;25670;44.782;10.356;2023-07-31T02:49:03;22.50;99.90
39983;DHT22;25670;44.782;10.356;2023-07-31T02:53:55;22.20;99.90
39983;DHT22;25670;44.782;10.356;2023-07-31T02:58:48;22.10;99.90
39983;DHT22;25670;44.782;10.356;2023-07-31T03:03:42;22.30;99.90
39983;DHT22;25670;44.782;10.356;2023-07-31T03:06:09;22.40;99.90
39983;DHT22;25670;44.782;10.356;2023-07-31T03:08:36;22.10;99.90
39983;DHT22;25670;44.782;10.356;2023-07-31T03:11:02;22.10;99.90
39983;DHT22;25670;44.782;10.356;2023-07-31T03:15:55;22.80;99.90
39983;DHT22;25670;44.782;10.356;2023-07-31T03:20:48;22.30;99.90
39983;DHT22;25670;44.782;10.356;2023-07-31T03:25:58;22.10;99.90
39983;DHT22;25670;44.782;10.356;2023-07-31T03:30:54;22.30;99.90
39983;DHT22;25670;44.782;10.356;2023-07-31T03:33:21;22.10;99.90
39983;DHT22;25670;44.782;10.356;2023-07-31T03:35:47;21.70;99.90
39983;DHT22;25670;44.782;10.356;2023-07-31T03:38:13;22.30;99.90
39983;DHT22;25670;44.782;10.356;2023-07-31T03:43:07;21.80;99.90
39983;DHT22;25670;44.782;10.356;2023-07-31T03:45:33;21.70;99.90
39983;DHT22;25670;44.782;10.356;2023-07-31T03:48:00;21.70;99.90
39983;DHT22;25670;44.782;10.356;2023-07-31T03:52:53;21.50;99.90
39983;DHT22;25670;44.782;10.356;2023-07-31T03:55:19;21.50;99.90
39983;DHT22;25670;44.782;10.356;2023-07-31T03:57:46;21.30;99.90
39983;DHT22;25670;44.782;10.356;2023-07-31T04:00:13;21.30;99.90
39983;DHT22;25670;44.782;10.356;2023-07-31T04:02:41;21.30;99.90
39983;DHT22;25670;44.782;10.356;2023-07-31T04:07:34;21.00;99.90
39983;DHT22;25670;44.782;10.356;2023-07-31T04:10:00;20.90;99.90
39983;DHT22;25670;44.782;10.356;2023-07-31T04:12:26;20.80;99.90
39983;DHT22;25670;44.782;10.356;2023-07-31T04:19:46;20.90;99.90
39983;DHT22;25670;44.782;10.356;2023-07-31T04:27:05;21.00;99.90
39983;DHT22;25670;44.782;10.356;2023-07-31T04:29:31;20.80;99.90
39983;DHT22;25670;44.782;10.356;2023-07-31T04:31:58;20.90;99.90
39983;DHT22;25670;44.782;10.356;2023-07-31T04:39:17;21.10;99.90
39983;DHT22;25670;44.782;10.356;2023-07-31T04:41:43;21.10;99.90
39983;DHT22;25670;44.782;10.356;2023-07-31T04:44:09;21.10;99.90
39983;DHT22;25670;44.782;10.356;2023-07-31T04:46:37;21.10;99.90
39983;DHT22;25670;44.782;10.356;2023-07-31T04:49:03;21.00;99.90
39983;DHT22;25670;44.782;10.356;2023-07-31T04:53:56;21.20;99.90
39983;DHT22;25670;44.782;10.356;2023-07-31T05:01:15;21.40;99.90
39983;DHT22;25670;44.782;10.356;2023-07-31T05:03:41;21.40;99.90
39983;DHT22;25670;44.782;10.356;2023-07-31T05:08:34;21.50;99.90
39983;DHT22;25670;44.782;10.356;2023-07-31T05:11:00;21.70;99.90
39983;DHT22;25670;44.782;10.356;2023-07-31T05:13:26;21.80;99.90
39983;DHT22;25670;44.782;10.356;2023-07-31T05:15:53;21.90;99.90
39983;DHT22;25670;44.782;10.356;2023-07-31T05:18:19;22.10;99.90
39983;DHT22;25670;44.782;10.356;2023-07-31T05:20:46;21.70;99.90
39983;DHT22;25670;44.782;10.356;2023-07-31T05:23:12;22.20;99.90
39983;DHT22;25670;44.782;10.356;2023-07-31T05:25:38;22.20;99.90
39983;DHT22;25670;44.782;10.356;2023-07-31T05:28:04;22.10;99.90
39983;DHT22;25670;44.782;10.356;2023-07-31T05:32:58;22.60;99.90
39983;DHT22;25670;44.782;10.356;2023-07-31T05:35:24;22.70;99.90
39983;DHT22;25670;44.782;10.356;2023-07-31T05:37:51;22.60;99.90
39983;DHT22;25670;44.782;10.356;2023-07-31T05:40:17;23.20;99.90
39983;DHT22;25670;44.782;10.356;2023-07-31T05:42:43;22.70;99.90
39983;DHT22;25670;44.782;10.356;2023-07-31T05:45:09;22.80;99.90
39983;DHT22;25670;44.782;10.356;2023-07-31T05:47:36;22.80;99.90
39983;DHT22;25670;44.782;10.356;2023-07-31T05:50:02;23.10;99.90
39983;DHT22;25670;44.782;10.356;2023-07-31T05:52:28;23.20;99.90
39983;DHT22;25670;44.782;10.356;2023-07-31T05:54:55;23.20;99.90
39983;DHT22;25670;44.782;10.356;2023-07-31T05:57:21;23.20;99.90
39983;DHT22;25670;44.782;10.356;2023-07-31T05:59:47;23.50;99.90
39983;DHT22;25670;44.782;10.356;2023-07-31T06:02:13;23.40;99.90
39983;DHT22;25670;44.782;10.356;2023-07-31T06:04:40;23.50;99.90
39983;DHT22;25670;44.782;10.356;2023-07-31T06:07:06;23.40;99.90
39983;DHT22;25670;44.782;10.356;2023-07-31T06:09:32;23.70;99.90
39983;DHT22;25670;44.782;10.356;2023-07-31T06:11:58;24.30;99.90
39983;DHT22;25670;44.782;10.356;2023-07-31T06:14:25;24.10;99.90
39983;DHT22;25670;44.782;10.356;2023-07-31T06:16:51;24.00;99.90
39983;DHT22;25670;44.782;10.356;2023-07-31T06:19:17;24.00;99.90
39983;DHT22;25670;44.782;10.356;2023-07-31T06:21:43;24.10;99.90
39983;DHT22;25670;44.782;10.356;2023-07-31T06:24:10;24.20;99.90
39983;DHT22;25670;44.782;10.356;2023-07-31T06:26:38;24.30;99.90
39983;DHT22;25670;44.782;10.356;2023-07-31T06:29:04;24.10;99.90
39983;DHT22;25670;44.782;10.356;2023-07-31T06:31:30;24.70;99.90
39983;DHT22;25670;44.782;10.356;2023-07-31T06:33:56;25.00;99.90
39983;DHT22;25670;44.782;10.356;2023-07-31T06:36:23;25.10;99.90
39983;DHT22;25670;44.782;10.356;2023-07-31T06:38:49;25.50;99.90
39983;DHT22;25670;44.782;10.356;2023-07-31T06:41:15;25.30;99.90
39983;DHT22;25670;44.782;10.356;2023-07-31T06:43:41;25.40;99.90
39983;DHT22;25670;44.782;10.356;2023-07-31T06:46:09;25.50;99.90
39983;DHT22;25670;44.782;10.356;2023-07-31T06:48:35;25.50;99.90
39983;DHT22;25670;44.782;10.356;2023-07-31T06:51:03;25.70;99.90
39983;DHT22;25670;44.782;10.356;2023-07-31T06:53:29;25.80;99.90
39983;DHT22;25670;44.782;10.356;2023-07-31T06:55:56;25.90;99.90
39983;DHT22;25670;44.782;10.356;2023-07-31T06:58:22;26.00;99.90
39983;DHT22;25670;44.782;10.356;2023-07-31T07:00:48;26.10;99.90
39983;DHT22;25670;44.782;10.356;2023-07-31T07:03:18;26.30;99.90
39983;DHT22;25670;44.782;10.356;2023-07-31T07:05:44;26.40;99.90
39983;DHT22;25670;44.782;10.356;2023-07-31T07:08:10;26.20;99.90
39983;DHT22;25670;44.782;10.356;2023-07-31T07:10:37;26.30;99.90
39983;DHT22;25670;44.782;10.356;2023-07-31T07:13:03;26.80;99.90
39983;DHT22;25670;44.782;10.356;2023-07-31T07:15:29;26.50;99.90
39983;DHT22;25670;44.782;10.356;2023-07-31T07:17:56;26.70;99.90
39983;DHT22;25670;44.782;10.356;2023-07-31T07:20:22;26.90;99.90
39983;DHT22;25670;44.782;10.356;2023-07-31T07:22:49;27.00;99.90
39983;DHT22;25670;44.782;10.356;2023-07-31T07:25:15;26.90;99.90
39983;DHT22;25670;44.782;10.356;2023-07-31T07:27:42;26.90;99.90
39983;DHT22;25670;44.782;10.356;2023-07-31T07:30:09;26.80;99.90
39983;DHT22;25670;44.782;10.356;2023-07-31T07:32:36;27.50;99.90
39983;DHT22;25670;44.782;10.356;2023-07-31T07:35:02;27.20;99.90
39983;DHT22;25670;44.782;10.356;2023-07-31T07:37:28;27.50;99.90
39983;DHT22;25670;44.782;10.356;2023-07-31T07:39:55;27.60;99.90
39983;DHT22;25670;44.782;10.356;2023-07-31T07:42:21;27.60;99.90
39983;DHT22;25670;44.782;10.356;2023-07-31T07:44:47;27.70;99.90
39983;DHT22;25670;44.782;10.356;2023-07-31T07:47:13;27.70;99.90
39983;DHT22;25670;44.782;10.356;2023-07-31T07:49:40;27.60;99.90
39983;DHT22;25670;44.782;10.356;2023-07-31T07:52:06;27.60;99.90
39983;DHT22;25670;44.782;10.356;2023-07-31T07:54:32;27.70;99.90
39983;DHT22;25670;44.782;10.356;2023-07-31T07:56:59;27.70;99.90
39983;DHT22;25670;44.782;10.356;2023-07-31T07:59:25;27.80;99.90
39983;DHT22;25670;44.782;10.356;2023-07-31T08:01:51;27.60;99.90
39983;DHT22;25670;44.782;10.356;2023-07-31T08:04:17;27.30;99.90
39983;DHT22;25670;44.782;10.356;2023-07-31T08:06:44;27.30;99.90
39983;DHT22;25670;44.782;10.356;2023-07-31T08:09:11;27.30;99.90
39983;DHT22;25670;44.782;10.356;2023-07-31T08:11:37;27.40;99.90
39983;DHT22;25670;44.782;10.356;2023-07-31T08:14:04;27.60;99.90
39983;DHT22;25670;44.782;10.356;2023-07-31T08:16:30;27.80;99.90
39983;DHT22;25670;44.782;10.356;2023-07-31T08:18:56;28.00;99.90
39983;DHT22;25670;44.782;10.356;2023-07-31T08:21:23;28.00;99.90
39983;DHT22;25670;44.782;10.356;2023-07-31T08:23:49;27.90;99.90
39983;DHT22;25670;44.782;10.356;2023-07-31T08:26:19;27.70;99.90
39983;DHT22;25670;44.782;10.356;2023-07-31T08:28:45;27.60;99.90
39983;DHT22;25670;44.782;10.356;2023-07-31T08:31:11;27.60;99.90
39983;DHT22;25670;44.782;10.356;2023-07-31T08:33:38;27.70;99.90
39983;DHT22;25670;44.782;10.356;2023-07-31T08:36:06;27.80;99.90
39983;DHT22;25670;44.782;10.356;2023-07-31T08:38:32;27.80;99.90
39983;DHT22;25670;44.782;10.356;2023-07-31T08:40:59;27.80;99.90
39983;DHT22;25670;44.782;10.356;2023-07-31T08:43:26;27.80;99.90
39983;DHT22;25670;44.782;10.356;2023-07-31T08:45:53;27.90;99.90
39983;DHT22;25670;44.782;10.356;2023-07-31T08:48:23;28.00;99.90
39983;DHT22;25670;44.782;10.356;2023-07-31T08:50:51;27.90;99.90
39983;DHT22;25670;44.782;10.356;2023-07-31T08:53:17;27.90;99.90
39983;DHT22;25670;44.782;10.356;2023-07-31T08:55:44;28.00;99.90
39983;DHT22;25670;44.782;10.356;2023-07-31T08:58:12;28.10;99.90
39983;DHT22;25670;44.782;10.356;2023-07-31T09:00:40;28.10;99.90
39983;DHT22;25670;44.782;10.356;2023-07-31T09:03:15;28.20;99.90
39983;DHT22;25670;44.782;10.356;2023-07-31T09:05:46;28.30;99.90
39983;DHT22;25670;44.782;10.356;2023-07-31T09:08:14;28.40;99.90
39983;DHT22;25670;44.782;10.356;2023-07-31T09:10:42;28.40;99.90
39983;DHT22;25670;44.782;10.356;2023-07-31T09:13:09;28.50;99.90
39983;DHT22;25670;44.782;10.356;2023-07-31T09:15:36;28.60;99.90
39983;DHT22;25670;44.782;10.356;2023-07-31T09:18:07;28.80;99.90
39983;DHT22;25670;44.782;10.356;2023-07-31T09:20:33;28.70;99.90
39983;DHT22;25670;44.782;10.356;2023-07-31T09:23:10;28.70;99.90
39983;DHT22;25670;44.782;10.356;2023-07-31T09:25:38;28.70;99.90
39983;DHT22;25670;44.782;10.356;2023-07-31T09:28:06;28.70;99.90
39983;DHT22;25670;44.782;10.356;2023-07-31T09:30:50;28.80;99.90
39983;DHT22;25670;44.782;10.356;2023-07-31T09:33:19;28.80;99.90
39983;DHT22;25670;44.782;10.356;2023-07-31T09:35:47;28.80;99.90
39983;DHT22;25670;44.782;10.356;2023-07-31T09:38:14;28.80;99.90
39983;DHT22;25670;44.782;10.356;2023-07-31T09:40:43;28.80;99.90
39983;DHT22;25670;44.782;10.356;2023-07-31T09:43:11;28.90;99.90
39983;DHT22;25670;44.782;10.356;2023-07-31T09:45:39;29.10;99.90
39983;DHT22;25670;44.782;10.356;2023-07-31T09:48:14;29.20;99.90
39983;DHT22;25670;44.782;10.356;2023-07-31T09:50:45;29.20;99.90
39983;DHT22;25670;44.782;10.356;2023-07-31T09:53:12;29.30;99.90
39983;DHT22;25670;44.782;10.356;2023-07-31T09:55:41;29.40;99.90
39983;DHT22;25670;44.782;10.356;2023-07-31T09:58:10;29.40;99.90
39983;DHT22;25670;44.782;10.356;2023-07-31T10:00:37;29.60;99.90
39983;DHT22;25670;44.782;10.356;2023-07-31T10:03:08;29.80;99.90
39983;DHT22;25670;44.782;10.356;2023-07-31T10:05:38;29.80;99.90
39983;DHT22;25670;44.782;10.356;2023-07-31T10:08:07;29.90;99.90
39983;DHT22;25670;44.782;10.356;2023-07-31T10:10:36;30.10;99.90
39983;DHT22;25670;44.782;10.356;2023-07-31T10:13:04;30.00;99.90
39983;DHT22;25670;44.782;10.356;2023-07-31T10:15:31;30.10;99.90
39983;DHT22;25670;44.782;10.356;2023-07-31T10:17:58;30.00;99.90
39983;DHT22;25670;44.782;10.356;2023-07-31T10:20:26;30.20;99.90
39983;DHT22;25670;44.782;10.356;2023-07-31T10:22:54;30.20;99.90
39983;DHT22;25670;44.782;10.356;2023-07-31T10:25:22;30.40;99.90
39983;DHT22;25670;44.782;10.356;2023-07-31T10:27:49;30.20;99.90
39983;DHT22;25670;44.782;10.356;2023-07-31T10:30:18;30.20;99.90
39983;DHT22;25670;44.782;10.356;2023-07-31T10:32:45;30.20;99.90
39983;DHT22;25670;44.782;10.356;2023-07-31T10:35:11;30.20;99.90
39983;DHT22;25670;44.782;10.356;2023-07-31T10:37:40;30.20;99.90
39983;DHT22;25670;44.782;10.356;2023-07-31T10:42:38;30.40;99.90
39983;DHT22;25670;44.782;10.356;2023-07-31T10:45:10;30.40;99.90
39983;DHT22;25670;44.782;10.356;2023-07-31T10:47:46;30.70;99.90
39983;DHT22;25670;44.782;10.356;2023-07-31T10:50:20;30.70;99.90
39983;DHT22;25670;44.782;10.356;2023-07-31T10:52:53;30.70;99.90
39983;DHT22;25670;44.782;10.356;2023-07-31T10:55:49;30.90;99.90
39983;DHT22;25670;44.782;10.356;2023-07-31T10:58:19;30.60;99.90
39983;DHT22;25670;44.782;10.356;2023-07-31T11:00:46;30.70;99.90
39983;DHT22;25670;44.782;10.356;2023-07-31T11:03:17;30.90;99.90
39983;DHT22;25670;44.782;10.356;2023-07-31T11:05:45;31.10;99.90
39983;DHT22;25670;44.782;10.356;2023-07-31T11:10:45;31.20;99.90
39983;DHT22;25670;44.782;10.356;2023-07-31T11:13:14;31.10;99.90
39983;DHT22;25670;44.782;10.356;2023-07-31T11:15:40;31.30;99.90
39983;DHT22;25670;44.782;10.356;2023-07-31T11:18:06;31.40;99.90
39983;DHT22;25670;44.782;10.356;2023-07-31T11:20:36;31.50;99.90
39983;DHT22;25670;44.782;10.356;2023-07-31T11:23:07;31.60;99.90
39983;DHT22;25670;44.782;10.356;2023-07-31T11:25:35;31.80;99.90
39983;DHT22;25670;44.782;10.356;2023-07-31T11:28:08;31.90;99.90
39983;DHT22;25670;44.782;10.356;2023-07-31T11:30:35;31.80;99.90
39983;DHT22;25670;44.782;10.356;2023-07-31T11:33:03;31.80;99.90
39983;DHT22;25670;44.782;10.356;2023-07-31T11:35:33;32.30;99.90
39983;DHT22;25670;44.782;10.356;2023-07-31T11:38:00;31.80;99.90
39983;DHT22;25670;44.782;10.356;2023-07-31T11:40:27;31.90;99.90
39983;DHT22;25670;44.782;10.356;2023-07-31T11:43:02;31.90;99.90
39983;DHT22;25670;44.782;10.356;2023-07-31T11:45:30;31.90;99.90
39983;DHT22;25670;44.782;10.356;2023-07-31T11:47:56;32.10;99.90
39983;DHT22;25670;44.782;10.356;2023-07-31T11:50:26;32.50;99.90
39983;DHT22;25670;44.782;10.356;2023-07-31T11:53:00;32.60;99.90
39983;DHT22;25670;44.782;10.356;2023-07-31T11:55:29;32.60;99.90
39983;DHT22;25670;44.782;10.356;2023-07-31T11:57:57;32.80;99.90
39983;DHT22;25670;44.782;10.356;2023-07-31T12:00:25;32.90;99.90
39983;DHT22;25670;44.782;10.356;2023-07-31T12:02:52;32.90;99.90
39983;DHT22;25670;44.782;10.356;2023-07-31T12:05:18;32.80;99.90
39983;DHT22;25670;44.782;10.356;2023-07-31T12:07:50;33.10;99.90
39983;DHT22;25670;44.782;10.356;2023-07-31T12:15:33;33.70;99.90
39983;DHT22;25670;44.782;10.356;2023-07-31T12:18:00;33.90;99.90
39983;DHT22;25670;44.782;10.356;2023-07-31T12:20:26;33.80;99.90
39983;DHT22;25670;44.782;10.356;2023-07-31T12:22:52;33.80;99.90
39983;DHT22;25670;44.782;10.356;2023-07-31T12:25:21;33.80;99.90
39983;DHT22;25670;44.782;10.356;2023-07-31T12:27:50;33.60;99.90
39983;DHT22;25670;44.782;10.356;2023-07-31T12:30:31;33.60;99.90
39983;DHT22;25670;44.782;10.356;2023-07-31T12:32:58;33.80;99.90
39983;DHT22;25670;44.782;10.356;2023-07-31T12:35:38;33.90;99.90
39983;DHT22;25670;44.782;10.356;2023-07-31T12:38:04;33.80;99.90
39983;DHT22;25670;44.782;10.356;2023-07-31T12:40:30;33.80;99.90
39983;DHT22;25670;44.782;10.356;2023-07-31T12:42:57;33.80;99.90
39983;DHT22;25670;44.782;10.356;2023-07-31T12:45:23;33.80;99.90
39983;DHT22;25670;44.782;10.356;2023-07-31T12:47:49;33.70;99.90
39983;DHT22;25670;44.782;10.356;2023-07-31T12:50:16;34.10;99.90
39983;DHT22;25670;44.782;10.356;2023-07-31T12:52:42;34.00;99.90
39983;DHT22;25670;44.782;10.356;2023-07-31T12:55:08;34.20;99.90
39983;DHT22;25670;44.782;10.356;2023-07-31T12:57:37;34.40;99.90
39983;DHT22;25670;44.782;10.356;2023-07-31T13:00:03;34.20;99.90
39983;DHT22;25670;44.782;10.356;2023-07-31T13:02:30;34.20;99.90
39983;DHT22;25670;44.782;10.356;2023-07-31T13:04:56;34.30;99.90
39983;DHT22;25670;44.782;10.356;2023-07-31T13:07:22;34.40;99.90
39983;DHT22;25670;44.782;10.356;2023-07-31T13:09:49;35.10;99.90
39983;DHT22;25670;44.782;10.356;2023-07-31T13:12:15;34.90;99.90
39983;DHT22;25670;44.782;10.356;2023-07-31T13:14:41;34.80;99.90
39983;DHT22;25670;44.782;10.356;2023-07-31T13:17:07;34.90;99.90
39983;DHT22;25670;44.782;10.356;2023-07-31T13:19:33;35.10;99.90
39983;DHT22;25670;44.782;10.356;2023-07-31T13:22:00;35.30;99.90
39983;DHT22;25670;44.782;10.356;2023-07-31T13:24:26;35.30;99.90
39983;DHT22;25670;44.782;10.356;2023-07-31T13:26:52;35.40;99.90
39983;DHT22;25670;44.782;10.356;2023-07-31T13:29:18;35.50;99.90
39983;DHT22;25670;44.782;10.356;2023-07-31T13:31:44;35.30;99.90
39983;DHT22;25670;44.782;10.356;2023-07-31T13:34:11;34.60;99.60
39983;DHT22;25670;44.782;10.356;2023-07-31T13:36:37;34.50;99.90
39983;DHT22;25670;44.782;10.356;2023-07-31T13:41:30;34.50;99.90
39983;DHT22;25670;44.782;10.356;2023-07-31T13:43:56;34.70;99.90
39983;DHT22;25670;44.782;10.356;2023-07-31T13:46:22;34.70;99.60
39983;DHT22;25670;44.782;10.356;2023-07-31T13:48:49;34.70;99.60
39983;DHT22;25670;44.782;10.356;2023-07-31T13:51:15;34.40;99.70
39983;DHT22;25670;44.782;10.356;2023-07-31T13:53:41;34.10;99.90
39983;DHT22;25670;44.782;10.356;2023-07-31T13:56:07;33.80;99.90
39983;DHT22;25670;44.782;10.356;2023-07-31T13:58:34;34.00;99.90
39983;DHT22;25670;44.782;10.356;2023-07-31T14:01:00;34.40;99.90
39983;DHT22;25670;44.782;10.356;2023-07-31T14:03:26;34.60;99.90
39983;DHT22;25670;44.782;10.356;2023-07-31T14:05:53;34.60;99.50
39983;DHT22;25670;44.782;10.356;2023-07-31T14:08:19;34.90;99.60
39983;DHT22;25670;44.782;10.356;2023-07-31T14:10:45;35.40;98.00
39983;DHT22;25670;44.782;10.356;2023-07-31T14:13:11;35.20;97.20
39983;DHT22;25670;44.782;10.356;2023-07-31T14:15:39;35.20;97.40
39983;DHT22;25670;44.782;10.356;2023-07-31T14:18:05;35.50;98.00
39983;DHT22;25670;44.782;10.356;2023-07-31T14:20:31;35.90;97.90
39983;DHT22;25670;44.782;10.356;2023-07-31T14:22:58;36.20;97.00
39983;DHT22;25670;44.782;10.356;2023-07-31T14:25:25;36.20;96.00
39983;DHT22;25670;44.782;10.356;2023-07-31T14:27:51;36.10;95.80
39983;DHT22;25670;44.782;10.356;2023-07-31T14:30:17;36.00;95.70
39983;DHT22;25670;44.782;10.356;2023-07-31T14:32:44;36.10;95.50
39983;DHT22;25670;44.782;10.356;2023-07-31T14:35:10;36.00;94.80
39983;DHT22;25670;44.782;10.356;2023-07-31T14:37:41;36.10;93.80
39983;DHT22;25670;44.782;10.356;2023-07-31T14:40:09;36.10;93.80
39983;DHT22;25670;44.782;10.356;2023-07-31T14:42:36;36.10;94.00
39983;DHT22;25670;44.782;10.356;2023-07-31T14:45:04;36.20;93.90
39983;DHT22;25670;44.782;10.356;2023-07-31T14:47:30;36.50;94.00
39983;DHT22;25670;44.782;10.356;2023-07-31T14:49:58;36.40;94.00
39983;DHT22;25670;44.782;10.356;2023-07-31T14:52:25;36.70;94.30
39983;DHT22;25670;44.782;10.356;2023-07-31T14:54:52;36.70;93.70
39983;DHT22;25670;44.782;10.356;2023-07-31T14:57:18;36.90;93.60
39983;DHT22;25670;44.782;10.356;2023-07-31T14:59:45;37.00;93.00
39983;DHT22;25670;44.782;10.356;2023-07-31T15:02:12;37.00;93.00
39983;DHT22;25670;44.782;10.356;2023-07-31T15:04:39;37.20;92.10
39983;DHT22;25670;44.782;10.356;2023-07-31T15:07:05;37.70;92.30
39983;DHT22;25670;44.782;10.356;2023-07-31T15:09:31;37.80;91.40
39983;DHT22;25670;44.782;10.356;2023-07-31T15:11:58;37.70;92.00
39983;DHT22;25670;44.782;10.356;2023-07-31T15:14:24;37.70;91.50
39983;DHT22;25670;44.782;10.356;2023-07-31T15:16:51;38.00;90.70
39983;DHT22;25670;44.782;10.356;2023-07-31T15:19:17;38.10;91.80
39983;DHT22;25670;44.782;10.356;2023-07-31T15:21:43;38.10;90.40
39983;DHT22;25670;44.782;10.356;2023-07-31T15:24:09;37.80;90.10
39983;DHT22;25670;44.782;10.356;2023-07-31T15:26:37;37.70;90.30
39983;DHT22;25670;44.782;10.356;2023-07-31T15:29:06;37.60;89.40
39983;DHT22;25670;44.782;10.356;2023-07-31T15:31:40;37.00;88.50
39983;DHT22;25670;44.782;10.356;2023-07-31T15:34:07;36.90;88.40
39983;DHT22;25670;44.782;10.356;2023-07-31T15:36:33;37.20;88.50
39983;DHT22;25670;44.782;10.356;2023-07-31T15:38:59;37.30;89.40
39983;DHT22;25670;44.782;10.356;2023-07-31T15:41:25;37.40;88.30
39983;DHT22;25670;44.782;10.356;2023-07-31T15:43:52;37.60;89.00
39983;DHT22;25670;44.782;10.356;2023-07-31T15:46:18;37.30;88.00
39983;DHT22;25670;44.782;10.356;2023-07-31T15:48:44;37.20;89.30
39983;DHT22;25670;44.782;10.356;2023-07-31T15:51:11;36.70;90.20
39983;DHT22;25670;44.782;10.356;2023-07-31T15:53:37;36.40;89.50
39983;DHT22;25670;44.782;10.356;2023-07-31T15:56:03;35.80;90.80
39983;DHT22;25670;44.782;10.356;2023-07-31T15:58:30;33.60;94.60
39983;DHT22;25670;44.782;10.356;2023-07-31T16:00:56;33.30;96.60
39983;DHT22;25670;44.782;10.356;2023-07-31T16:03:22;33.20;98.60
39983;DHT22;25670;44.782;10.356;2023-07-31T16:05:48;32.80;97.40
39983;DHT22;25670;44.782;10.356;2023-07-31T16:08:15;33.00;98.10
39983;DHT22;25670;44.782;10.356;2023-07-31T16:10:41;33.20;98.10
39983;DHT22;25670;44.782;10.356;2023-07-31T16:13:07;33.40;98.30
39983;DHT22;25670;44.782;10.356;2023-07-31T16:15:33;33.70;99.10
39983;DHT22;25670;44.782;10.356;2023-07-31T16:18:00;34.00;99.20
39983;DHT22;25670;44.782;10.356;2023-07-31T16:20:26;34.50;99.00
39983;DHT22;25670;44.782;10.356;2023-07-31T16:22:54;34.50;98.70
39983;DHT22;25670;44.782;10.356;2023-07-31T16:25:20;34.20;99.30
39983;DHT22;25670;44.782;10.356;2023-07-31T16:27:46;33.90;99.70
39983;DHT22;25670;44.782;10.356;2023-07-31T16:30:12;33.60;99.90
39983;DHT22;25670;44.782;10.356;2023-07-31T16:32:39;33.80;99.90
39983;DHT22;25670;44.782;10.356;2023-07-31T16:35:05;33.90;99.80
39983;DHT22;25670;44.782;10.356;2023-07-31T16:37:32;34.00;99.40
39983;DHT22;25670;44.782;10.356;2023-07-31T16:39:58;33.90;98.40
39983;DHT22;25670;44.782;10.356;2023-07-31T16:42:25;34.20;97.60
39983;DHT22;25670;44.782;10.356;2023-07-31T16:44:51;34.30;97.50
39983;DHT22;25670;44.782;10.356;2023-07-31T16:47:17;34.30;97.30
39983;DHT22;25670;44.782;10.356;2023-07-31T16:49:43;34.20;97.30
39983;DHT22;25670;44.782;10.356;2023-07-31T16:54:36;33.30;97.50
39983;DHT22;25670;44.782;10.356;2023-07-31T16:57:02;33.60;97.30
39983;DHT22;25670;44.782;10.356;2023-07-31T17:01:55;33.00;98.00
39983;DHT22;25670;44.782;10.356;2023-07-31T17:04:22;32.70;97.50
39983;DHT22;25670;44.782;10.356;2023-07-31T17:06:48;33.70;97.00
39983;DHT22;25670;44.782;10.356;2023-07-31T17:09:15;33.60;96.40
39983;DHT22;25670;44.782;10.356;2023-07-31T17:11:41;33.70;95.80
39983;DHT22;25670;44.782;10.356;2023-07-31T17:14:07;32.20;97.10